sensor_id;sensor_type;location;lat;lon;timestamp;pressure;altitude;pressure_sealevel;temperature;humidity
46836;BME280;32573;51.290;6.926;2022-11-14T00:02:40;100166.66;;;5.40;100.00
46836;BME280;32573;51.290;6.926;2022-11-14T00:05:28;100162.13;;;5.36;100.00
46836;BME280;32573;51.290;6.926;2022-11-14T00:08:18;100162.81;;;5.32;100.00
46836;BME280;32573;51.290;6.926;2022-11-14T00:11:05;100167.03;;;5.30;100.00
46836;BME280;32573;51.290;6.926;2022-11-14T00:13:52;100169.47;;;5.27;100.00
46836;BME280;32573;51.290;6.926;2022-11-14T00:16:39;100160.59;;;5.22;100.00
46836;BME280;32573;51.290;6.926;2022-11-14T00:19:26;100157.81;;;5.19;100.00
46836;BME280;32573;51.290;6.926;2022-11-14T00:22:14;100156.69;;;5.14;100.00
46836;BME280;32573;51.290;6.926;2022-11-14T00:25:01;100160.84;;;5.10;100.00
46836;BME280;32573;51.290;6.926;2022-11-14T00:27:48;100158.03;;;5.06;100.00
46836;BME280;32573;51.290;6.926;2022-11-14T00:30:35;100145.72;;;5.02;100.00
46836;BME280;32573;51.290;6.926;2022-11-14T00:33:22;100146.53;;;5.01;100.00
46836;BME280;32573;51.290;6.926;2022-11-14T00:36:09;100149.88;;;4.98;100.00
46836;BME280;32573;51.290;6.926;2022-11-14T00:38:57;100145.44;;;4.95;100.00
46836;BME280;32573;51.290;6.926;2022-11-14T00:41:44;100147.13;;;4.95;100.00
46836;BME280;32573;51.290;6.926;2022-11-14T00:44:31;100135.78;;;4.93;100.00
46836;BME280;32573;51.290;6.926;2022-11-14T00:47:18;100141.72;;;4.90;100.00
46836;BME280;32573;51.290;6.926;2022-11-14T00:50:06;100131.19;;;4.87;100.00
46836;BME280;32573;51.290;6.926;2022-11-14T00:52:53;100127.63;;;4.85;100.00
46836;BME280;32573;51.290;6.926;2022-11-14T00:55:41;100124.06;;;4.83;100.00
46836;BME280;32573;51.290;6.926;2022-11-14T00:58:28;100119.72;;;4.82;100.00
46836;BME280;32573;51.290;6.926;2022-11-14T01:01:16;100121.38;;;4.82;100.00
46836;BME280;32573;51.290;6.926;2022-11-14T01:04:03;100114.34;;;4.79;100.00
46836;BME280;32573;51.290;6.926;2022-11-14T01:06:49;100119.53;;;4.79;100.00
46836;BME280;32573;51.290;6.926;2022-11-14T01:09:36;100118.72;;;4.80;100.00
46836;BME280;32573;51.290;6.926;2022-11-14T01:12:24;100108.41;;;4.82;100.00
46836;BME280;32573;51.290;6.926;2022-11-14T01:15:11;100106.88;;;4.85;100.00
46836;BME280;32573;51.290;6.926;2022-11-14T01:17:58;100093.28;;;4.89;100.00
46836;BME280;32573;51.290;6.926;2022-11-14T01:20:47;100091.63;;;4.91;100.00
46836;BME280;32573;51.290;6.926;2022-11-14T01:23:34;100085.78;;;4.95;100.00
46836;BME280;32573;51.290;6.926;2022-11-14T01:26:21;100086.75;;;4.97;100.00
46836;BME280;32573;51.290;6.926;2022-11-14T01:29:10;100078.28;;;5.02;100.00
46836;BME280;32573;51.290;6.926;2022-11-14T01:31:57;100071.63;;;5.07;100.00
46836;BME280;32573;51.290;6.926;2022-11-14T01:34:45;100067.69;;;5.15;100.00
46836;BME280;32573;51.290;6.926;2022-11-14T01:37:32;100068.94;;;5.23;100.00
46836;BME280;32573;51.290;6.926;2022-11-14T01:40:19;100060.78;;;5.33;100.00
46836;BME280;32573;51.290;6.926;2022-11-14T01:43:26;100062.19;;;5.45;100.00
46836;BME280;32573;51.290;6.926;2022-11-14T01:46:17;100046.09;;;5.52;100.00
46836;BME280;32573;51.290;6.926;2022-11-14T01:49:11;100052.63;;;5.63;100.00
46836;BME280;32573;51.290;6.926;2022-11-14T01:52:02;100038.28;;;5.71;100.00
46836;BME280;32573;51.290;6.926;2022-11-14T01:54:52;100031.88;;;5.82;100.00
46836;BME280;32573;51.290;6.926;2022-11-14T01:57:45;100032.34;;;5.93;100.00
46836;BME280;32573;51.290;6.926;2022-11-14T02:00:32;100037.09;;;6.02;100.00
46836;BME280;32573;51.290;6.926;2022-11-14T02:03:20;100027.94;;;6.10;100.00
46836;BME280;32573;51.290;6.926;2022-11-14T02:06:09;100035.16;;;6.17;100.00
46836;BME280;32573;51.290;6.926;2022-11-14T02:09:01;100037.22;;;6.24;100.00
46836;BME280;32573;51.290;6.926;2022-11-14T02:11:50;100038.34;;;6.31;100.00
46836;BME280;32573;51.290;6.926;2022-11-14T02:14:40;100035.19;;;6.38;100.00
46836;BME280;32573;51.290;6.926;2022-11-14T02:17:30;100046.63;;;6.42;100.00
46836;BME280;32573;51.290;6.926;2022-11-14T02:20:21;100045.97;;;6.47;100.00
46836;BME280;32573;51.290;6.926;2022-11-14T02:23:09;100039.13;;;6.50;100.00
46836;BME280;32573;51.290;6.926;2022-11-14T02:25:57;100044.47;;;6.53;100.00
46836;BME280;32573;51.290;6.926;2022-11-14T02:28:44;100029.81;;;6.55;100.00
46836;BME280;32573;51.290;6.926;2022-11-14T02:31:31;100038.56;;;6.57;100.00
46836;BME280;32573;51.290;6.926;2022-11-14T02:34:18;100030.78;;;6.57;100.00
46836;BME280;32573;51.290;6.926;2022-11-14T02:37:07;100025.56;;;6.57;100.00
46836;BME280;32573;51.290;6.926;2022-11-14T02:39:54;100023.75;;;6.54;100.00
46836;BME280;32573;51.290;6.926;2022-11-14T02:42:41;100021.94;;;6.53;100.00
46836;BME280;32573;51.290;6.926;2022-11-14T02:45:28;100022.72;;;6.51;100.00
46836;BME280;32573;51.290;6.926;2022-11-14T02:48:15;100012.25;;;6.49;100.00
46836;BME280;32573;51.290;6.926;2022-11-14T02:51:02;100015.53;;;6.45;100.00
46836;BME280;32573;51.290;6.926;2022-11-14T02:53:50;100014.50;;;6.41;100.00
46836;BME280;32573;51.290;6.926;2022-11-14T02:56:37;100012.66;;;6.39;100.00
46836;BME280;32573;51.290;6.926;2022-11-14T02:59:24;100011.66;;;6.35;100.00
46836;BME280;32573;51.290;6.926;2022-11-14T03:02:11;100011.53;;;6.32;100.00
46836;BME280;32573;51.290;6.926;2022-11-14T03:04:58;100015.78;;;6.30;100.00
46836;BME280;32573;51.290;6.926;2022-11-14T03:07:45;100013.94;;;6.28;100.00
46836;BME280;32573;51.290;6.926;2022-11-14T03:10:34;100016.44;;;6.24;100.00
46836;BME280;32573;51.290;6.926;2022-11-14T03:13:21;100006.78;;;6.22;100.00
46836;BME280;32573;51.290;6.926;2022-11-14T03:16:10;100010.94;;;6.18;100.00
46836;BME280;32573;51.290;6.926;2022-11-14T03:18:57;100003.09;;;6.17;100.00
46836;BME280;32573;51.290;6.926;2022-11-14T03:21:46;100005.63;;;6.15;100.00
46836;BME280;32573;51.290;6.926;2022-11-14T03:24:33;99996.88;;;6.13;100.00
46836;BME280;32573;51.290;6.926;2022-11-14T03:27:21;99998.50;;;6.11;100.00
46836;BME280;32573;51.290;6.926;2022-11-14T03:30:09;99997.63;;;6.11;100.00
46836;BME280;32573;51.290;6.926;2022-11-14T03:32:56;99993.19;;;6.08;100.00
46836;BME280;32573;51.290;6.926;2022-11-14T03:35:43;99995.78;;;6.08;100.00
46836;BME280;32573;51.290;6.926;2022-11-14T03:38:30;99988.84;;;6.07;100.00
46836;BME280;32573;51.290;6.926;2022-11-14T03:41:17;99989.63;;;6.06;100.00
46836;BME280;32573;51.290;6.926;2022-11-14T03:44:05;99987.78;;;6.03;100.00
46836;BME280;32573;51.290;6.926;2022-11-14T03:46:52;99991.22;;;6.02;100.00
46836;BME280;32573;51.290;6.926;2022-11-14T03:49:39;99989.38;;;6.00;100.00
46836;BME280;32573;51.290;6.926;2022-11-14T03:52:26;99995.38;;;5.99;100.00
46836;BME280;32573;51.290;6.926;2022-11-14T03:55:13;99993.63;;;5.98;100.00
46836;BME280;32573;51.290;6.926;2022-11-14T03:58:00;99983.16;;;5.96;100.00
46836;BME280;32573;51.290;6.926;2022-11-14T04:00:49;99990.91;;;5.95;100.00
46836;BME280;32573;51.290;6.926;2022-11-14T04:03:36;99988.19;;;5.93;100.00
46836;BME280;32573;51.290;6.926;2022-11-14T04:06:23;99977.75;;;5.92;100.00
46836;BME280;32573;51.290;6.926;2022-11-14T04:09:10;99983.75;;;5.91;100.00
46836;BME280;32573;51.290;6.926;2022-11-14T04:11:57;99982.78;;;5.89;100.00
46836;BME280;32573;51.290;6.926;2022-11-14T04:14:43;99983.63;;;5.88;100.00
46836;BME280;32573;51.290;6.926;2022-11-14T04:17:32;99978.31;;;5.84;100.00
46836;BME280;32573;51.290;6.926;2022-11-14T04:20:24;99966.94;;;5.82;100.00
46836;BME280;32573;51.290;6.926;2022-11-14T04:23:11;99964.28;;;5.81;100.00
46836;BME280;32573;51.290;6.926;2022-11-14T04:25:58;99964.22;;;5.79;100.00
46836;BME280;32573;51.290;6.926;2022-11-14T04:28:45;99965.88;;;5.77;100.00
46836;BME280;32573;51.290;6.926;2022-11-14T04:31:32;99967.50;;;5.75;100.00
46836;BME280;32573;51.290;6.926;2022-11-14T04:34:20;99976.03;;;5.73;100.00
46836;BME280;32573;51.290;6.926;2022-11-14T04:37:07;99973.38;;;5.71;100.00
46836;BME280;32573;51.290;6.926;2022-11-14T04:39:54;99973.25;;;5.68;100.00
46836;BME280;32573;51.290;6.926;2022-11-14T04:42:43;99977.56;;;5.68;100.00
46836;BME280;32573;51.290;6.926;2022-11-14T04:45:30;99974.00;;;5.66;100.00
46836;BME280;32573;51.290;6.926;2022-11-14T04:48:17;99972.22;;;5.65;100.00
46836;BME280;32573;51.290;6.926;2022-11-14T04:51:05;99974.75;;;5.63;100.00
46836;BME280;32573;51.290;6.926;2022-11-14T04:53:52;99969.47;;;5.61;100.00
46836;BME280;32573;51.290;6.926;2022-11-14T04:56:39;99965.94;;;5.59;100.00
46836;BME280;32573;51.290;6.926;2022-11-14T04:59:26;99964.09;;;5.57;100.00
46836;BME280;32573;51.290;6.926;2022-11-14T05:02:13;99968.34;;;5.55;100.00
46836;BME280;32573;51.290;6.926;2022-11-14T05:05:00;99960.41;;;5.52;100.00
46836;BME280;32573;51.290;6.926;2022-11-14T05:07:49;99958.56;;;5.49;100.00
46836;BME280;32573;51.290;6.926;2022-11-14T05:10:36;99954.19;;;5.48;100.00
46836;BME280;32573;51.290;6.926;2022-11-14T05:13:23;99954.94;;;5.46;100.00
46836;BME280;32573;51.290;6.926;2022-11-14T05:16:10;99952.25;;;5.44;100.00
46836;BME280;32573;51.290;6.926;2022-11-14T05:18:57;99946.19;;;5.44;100.00
46836;BME280;32573;51.290;6.926;2022-11-14T05:21:44;99937.44;;;5.41;100.00
46836;BME280;32573;51.290;6.926;2022-11-14T05:24:32;99946.91;;;5.39;100.00
46836;BME280;32573;51.290;6.926;2022-11-14T05:27:19;99934.72;;;5.38;100.00
46836;BME280;32573;51.290;6.926;2022-11-14T05:30:08;99932.88;;;5.36;100.00
46836;BME280;32573;51.290;6.926;2022-11-14T05:32:55;99919.84;;;5.34;100.00
46836;BME280;32573;51.290;6.926;2022-11-14T05:35:42;99924.97;;;5.33;100.00
46836;BME280;32573;51.290;6.926;2022-11-14T05:38:29;99921.47;;;5.32;100.00
46836;BME280;32573;51.290;6.926;2022-11-14T05:41:18;99916.28;;;5.32;100.00
46836;BME280;32573;51.290;6.926;2022-11-14T05:44:05;99915.47;;;5.33;100.00
46836;BME280;32573;51.290;6.926;2022-11-14T05:46:52;99924.09;;;5.32;100.00
46836;BME280;32573;51.290;6.926;2022-11-14T05:49:39;99922.28;;;5.31;100.00
46836;BME280;32573;51.290;6.926;2022-11-14T05:52:26;99924.09;;;5.32;100.00
46836;BME280;32573;51.290;6.926;2022-11-14T05:55:13;99920.66;;;5.33;100.00
46836;BME280;32573;51.290;6.926;2022-11-14T05:58:08;99925.97;;;5.36;100.00
46836;BME280;32573;51.290;6.926;2022-11-14T06:01:01;99913.16;;;5.39;100.00
46836;BME280;32573;51.290;6.926;2022-11-14T06:03:48;99908.91;;;5.41;100.00
46836;BME280;32573;51.290;6.926;2022-11-14T06:06:35;99902.91;;;5.43;100.00
46836;BME280;32573;51.290;6.926;2022-11-14T06:09:22;99908.16;;;5.44;100.00
46836;BME280;32573;51.290;6.926;2022-11-14T06:12:09;99914.25;;;5.45;100.00
46836;BME280;32573;51.290;6.926;2022-11-14T06:14:57;99904.81;;;5.47;100.00
46836;BME280;32573;51.290;6.926;2022-11-14T06:17:44;99905.75;;;5.49;100.00
46836;BME280;32573;51.290;6.926;2022-11-14T06:20:31;99903.25;;;5.50;100.00
46836;BME280;32573;51.290;6.926;2022-11-14T06:23:18;99898.13;;;5.52;100.00
46836;BME280;32573;51.290;6.926;2022-11-14T06:26:14;99893.94;;;5.55;100.00
46836;BME280;32573;51.290;6.926;2022-11-14T06:29:04;99900.13;;;5.59;100.00
46836;BME280;32573;51.290;6.926;2022-11-14T06:31:53;99902.81;;;5.60;100.00
46836;BME280;32573;51.290;6.926;2022-11-14T06:34:40;99908.09;;;5.62;100.00
46836;BME280;32573;51.290;6.926;2022-11-14T06:37:27;99911.59;;;5.64;100.00
46836;BME280;32573;51.290;6.926;2022-11-14T06:40:18;99915.13;;;5.65;100.00
46836;BME280;32573;51.290;6.926;2022-11-14T06:43:05;99908.22;;;5.65;100.00
46836;BME280;32573;51.290;6.926;2022-11-14T06:45:52;99913.41;;;5.65;100.00
46836;BME280;32573;51.290;6.926;2022-11-14T06:48:42;99918.59;;;5.65;100.00
46836;BME280;32573;51.290;6.926;2022-11-14T06:51:29;99922.91;;;5.65;100.00
46836;BME280;32573;51.290;6.926;2022-11-14T06:54:16;99922.00;;;5.64;100.00
46836;BME280;32573;51.290;6.926;2022-11-14T06:57:03;99921.06;;;5.62;100.00
46836;BME280;32573;51.290;6.926;2022-11-14T06:59:50;99918.47;;;5.62;100.00
46836;BME280;32573;51.290;6.926;2022-11-14T07:02:37;99914.91;;;5.60;100.00
46836;BME280;32573;51.290;6.926;2022-11-14T07:05:25;99907.94;;;5.59;100.00
46836;BME280;32573;51.290;6.926;2022-11-14T07:08:12;99913.94;;;5.58;100.00
46836;BME280;32573;51.290;6.926;2022-11-14T07:11:07;99914.84;;;5.58;100.00
46836;BME280;32573;51.290;6.926;2022-11-14T07:13:55;99916.56;;;5.58;100.00
46836;BME280;32573;51.290;6.926;2022-11-14T07:16:43;99914.78;;;5.57;100.00
46836;BME280;32573;51.290;6.926;2022-11-14T07:19:29;99913.13;;;5.59;100.00
46836;BME280;32573;51.290;6.926;2022-11-14T07:22:17;99914.91;;;5.60;100.00
46836;BME280;32573;51.290;6.926;2022-11-14T07:25:05;99918.47;;;5.62;100.00
46836;BME280;32573;51.290;6.926;2022-11-14T07:27:52;99915.91;;;5.63;100.00
46836;BME280;32573;51.290;6.926;2022-11-14T07:30:42;99921.28;;;5.67;100.00
46836;BME280;32573;51.290;6.926;2022-11-14T07:33:29;99919.59;;;5.69;100.00
46836;BME280;32573;51.290;6.926;2022-11-14T07:36:17;99910.19;;;5.71;100.00
46836;BME280;32573;51.290;6.926;2022-11-14T07:39:05;99913.81;;;5.74;100.00
46836;BME280;32573;51.290;6.926;2022-11-14T07:41:52;99921.72;;;5.77;100.00
46836;BME280;32573;51.290;6.926;2022-11-14T07:44:39;99918.38;;;5.80;100.00
46836;BME280;32573;51.290;6.926;2022-11-14T07:47:26;99926.38;;;5.84;100.00
46836;BME280;32573;51.290;6.926;2022-11-14T07:50:13;99928.31;;;5.90;100.00
46836;BME280;32573;51.290;6.926;2022-11-14T07:53:05;99928.56;;;5.95;100.00
46836;BME280;32573;51.290;6.926;2022-11-14T07:55:53;99914.94;;;6.00;100.00
46836;BME280;32573;51.290;6.926;2022-11-14T07:58:40;99921.31;;;6.09;100.00
46836;BME280;32573;51.290;6.926;2022-11-14T08:01:27;99915.44;;;6.13;100.00
46836;BME280;32573;51.290;6.926;2022-11-14T08:04:14;99918.25;;;6.17;100.00
46836;BME280;32573;51.290;6.926;2022-11-14T08:07:01;99917.66;;;6.24;100.00
46836;BME280;32573;51.290;6.926;2022-11-14T08:09:48;99909.16;;;6.29;100.00
46836;BME280;32573;51.290;6.926;2022-11-14T08:12:37;99915.44;;;6.34;100.00
46836;BME280;32573;51.290;6.926;2022-11-14T08:15:24;99914.81;;;6.39;100.00
46836;BME280;32573;51.290;6.926;2022-11-14T08:18:11;99914.97;;;6.44;100.00
46836;BME280;32573;51.290;6.926;2022-11-14T08:20:58;99913.47;;;6.49;100.00
46836;BME280;32573;51.290;6.926;2022-11-14T08:23:48;99900.78;;;6.57;100.00
46836;BME280;32573;51.290;6.926;2022-11-14T08:26:35;99905.31;;;6.62;100.00
46836;BME280;32573;51.290;6.926;2022-11-14T08:29:24;99898.66;;;6.69;100.00
46836;BME280;32573;51.290;6.926;2022-11-14T08:32:11;99899.75;;;6.76;100.00
46836;BME280;32573;51.290;6.926;2022-11-14T08:34:57;99896.56;;;6.83;100.00
46836;BME280;32573;51.290;6.926;2022-11-14T08:37:44;99897.63;;;6.88;100.00
46836;BME280;32573;51.290;6.926;2022-11-14T08:40:31;99893.56;;;6.95;100.00
46836;BME280;32573;51.290;6.926;2022-11-14T08:43:18;99904.16;;;6.99;100.00
46836;BME280;32573;51.290;6.926;2022-11-14T08:46:08;99893.16;;;7.06;100.00
46836;BME280;32573;51.290;6.926;2022-11-14T08:48:55;99898.56;;;7.12;100.00
46836;BME280;32573;51.290;6.926;2022-11-14T08:51:42;99873.53;;;7.16;100.00
46836;BME280;32573;51.290;6.926;2022-11-14T08:54:29;99878.91;;;7.21;100.00
46836;BME280;32573;51.290;6.926;2022-11-14T08:57:16;99868.66;;;7.25;100.00
46836;BME280;32573;51.290;6.926;2022-11-14T09:00:04;99865.34;;;7.29;100.00
46836;BME280;32573;51.290;6.926;2022-11-14T09:02:52;99864.59;;;7.33;100.00
46836;BME280;32573;51.290;6.926;2022-11-14T09:05:39;99860.41;;;7.37;100.00
46836;BME280;32573;51.290;6.926;2022-11-14T09:08:26;99866.66;;;7.42;100.00
46836;BME280;32573;51.290;6.926;2022-11-14T09:11:14;99878.97;;;7.46;100.00
46836;BME280;32573;51.290;6.926;2022-11-14T09:14:03;99884.28;;;7.49;100.00
46836;BME280;32573;51.290;6.926;2022-11-14T09:16:50;99879.19;;;7.52;100.00
46836;BME280;32573;51.290;6.926;2022-11-14T09:19:38;99886.22;;;7.55;100.00
46836;BME280;32573;51.290;6.926;2022-11-14T09:22:25;99888.03;;;7.57;100.00
46836;BME280;32573;51.290;6.926;2022-11-14T09:25:12;99887.19;;;7.59;100.00
46836;BME280;32573;51.290;6.926;2022-11-14T09:28:03;99880.38;;;7.62;100.00
46836;BME280;32573;51.290;6.926;2022-11-14T09:30:49;99890.03;;;7.65;100.00
46836;BME280;32573;51.290;6.926;2022-11-14T09:33:36;99879.72;;;7.68;100.00
46836;BME280;32573;51.290;6.926;2022-11-14T09:36:25;99878.94;;;7.70;100.00
46836;BME280;32573;51.290;6.926;2022-11-14T09:39:12;99872.06;;;7.72;100.00
46836;BME280;32573;51.290;6.926;2022-11-14T09:42:10;99888.66;;;7.76;100.00
46836;BME280;32573;51.290;6.926;2022-11-14T09:45:03;99882.66;;;7.78;100.00
46836;BME280;32573;51.290;6.926;2022-11-14T09:47:53;99887.94;;;7.80;100.00
46836;BME280;32573;51.290;6.926;2022-11-14T09:50:45;99890.66;;;7.83;100.00
46836;BME280;32573;51.290;6.926;2022-11-14T09:53:40;99887.22;;;7.84;100.00
46836;BME280;32573;51.290;6.926;2022-11-14T09:56:28;99877.69;;;7.85;100.00
46836;BME280;32573;51.290;6.926;2022-11-14T09:59:16;99875.16;;;7.86;100.00
46836;BME280;32573;51.290;6.926;2022-11-14T10:02:09;99876.91;;;7.87;100.00
46836;BME280;32573;51.290;6.926;2022-11-14T10:05:16;99873.44;;;7.88;100.00
46836;BME280;32573;51.290;6.926;2022-11-14T10:08:20;99873.44;;;7.88;100.00
46836;BME280;32573;51.290;6.926;2022-11-14T10:11:17;99865.69;;;7.90;100.00
46836;BME280;32573;51.290;6.926;2022-11-14T10:14:39;99871.78;;;7.90;100.00
46836;BME280;32573;51.290;6.926;2022-11-14T10:17:43;99863.16;;;7.91;100.00
46836;BME280;32573;51.290;6.926;2022-11-14T10:20:39;99859.72;;;7.92;100.00
46836;BME280;32573;51.290;6.926;2022-11-14T10:23:33;99864.03;;;7.92;100.00
46836;BME280;32573;51.290;6.926;2022-11-14T10:26:27;99852.84;;;7.94;100.00
46836;BME280;32573;51.290;6.926;2022-11-14T10:33:03;99857.28;;;7.98;100.00
46836;BME280;32573;51.290;6.926;2022-11-14T10:35:59;99853.03;;;8.00;100.00
46836;BME280;32573;51.290;6.926;2022-11-14T10:38:51;99850.47;;;8.02;100.00
46836;BME280;32573;51.290;6.926;2022-11-14T10:41:42;99847.97;;;8.05;100.00
46836;BME280;32573;51.290;6.926;2022-11-14T10:45:00;99834.16;;;8.08;100.00
46836;BME280;32573;51.290;6.926;2022-11-14T10:47:51;99839.44;;;8.11;100.00
46836;BME280;32573;51.290;6.926;2022-11-14T10:50:42;99838.72;;;8.15;100.00
46836;BME280;32573;51.290;6.926;2022-11-14T10:53:40;99832.81;;;8.20;100.00
46836;BME280;32573;51.290;6.926;2022-11-14T10:56:29;99828.63;;;8.26;100.00
46836;BME280;32573;51.290;6.926;2022-11-14T10:59:17;99825.28;;;8.30;100.00
46836;BME280;32573;51.290;6.926;2022-11-14T11:02:05;99829.81;;;8.35;100.00
46836;BME280;32573;51.290;6.926;2022-11-14T11:04:52;99821.28;;;8.39;100.00
46836;BME280;32573;51.290;6.926;2022-11-14T11:07:43;99835.34;;;8.45;100.00
46836;BME280;32573;51.290;6.926;2022-11-14T11:11:11;99831.22;;;8.51;100.00
46836;BME280;32573;51.290;6.926;2022-11-14T11:14:18;99819.19;;;8.56;100.00
46836;BME280;32573;51.290;6.926;2022-11-14T11:17:23;99802.84;;;8.62;100.00
46836;BME280;32573;51.290;6.926;2022-11-14T11:20:25;99796.03;;;8.67;100.00
46836;BME280;32573;51.290;6.926;2022-11-14T11:23:18;99792.72;;;8.73;100.00
46836;BME280;32573;51.290;6.926;2022-11-14T11:26:07;99794.59;;;8.78;100.00
46836;BME280;32573;51.290;6.926;2022-11-14T11:29:07;99795.75;;;8.88;100.00
46836;BME280;32573;51.290;6.926;2022-11-14T11:32:01;99796.81;;;8.95;100.00
46836;BME280;32573;51.290;6.926;2022-11-14T11:34:48;99787.53;;;9.04;100.00
46836;BME280;32573;51.290;6.926;2022-11-14T11:37:41;99787.72;;;9.12;100.00
46836;BME280;32573;51.290;6.926;2022-11-14T11:40:29;99799.25;;;9.20;100.00
46836;BME280;32573;51.290;6.926;2022-11-14T11:43:25;99803.75;;;9.24;100.00
46836;BME280;32573;51.290;6.926;2022-11-14T11:46:29;99820.41;;;9.29;100.00
46836;BME280;32573;51.290;6.926;2022-11-14T11:49:26;99807.41;;;9.31;100.00
46836;BME280;32573;51.290;6.926;2022-11-14T11:52:15;99776.09;;;9.33;100.00
46836;BME280;32573;51.290;6.926;2022-11-14T11:55:13;99767.47;;;9.35;100.00
46836;BME280;32573;51.290;6.926;2022-11-14T11:58:04;99767.63;;;9.41;100.00
46836;BME280;32573;51.290;6.926;2022-11-14T12:00:52;99752.97;;;9.48;100.00
46836;BME280;32573;51.290;6.926;2022-11-14T12:03:41;99747.03;;;9.54;100.00
46836;BME280;32573;51.290;6.926;2022-11-14T12:06:38;99741.03;;;9.58;100.00
46836;BME280;32573;51.290;6.926;2022-11-14T12:09:32;99742.00;;;9.61;100.00
46836;BME280;32573;51.290;6.926;2022-11-14T12:16:08;99720.38;;;9.67;100.00
46836;BME280;32573;51.290;6.926;2022-11-14T12:19:14;99716.94;;;9.69;100.00
46836;BME280;32573;51.290;6.926;2022-11-14T12:22:26;99718.69;;;9.70;100.00
46836;BME280;32573;51.290;6.926;2022-11-14T12:28:56;99704.88;;;9.75;100.00
46836;BME280;32573;51.290;6.926;2022-11-14T12:31:55;99706.72;;;9.79;100.00
46836;BME280;32573;51.290;6.926;2022-11-14T12:34:44;99696.31;;;9.82;100.00
46836;BME280;32573;51.290;6.926;2022-11-14T12:37:36;99701.63;;;9.85;100.00
46836;BME280;32573;51.290;6.926;2022-11-14T12:40:30;99698.25;;;9.89;100.00
46836;BME280;32573;51.290;6.926;2022-11-14T12:43:29;99690.41;;;9.90;100.00
46836;BME280;32573;51.290;6.926;2022-11-14T12:46:21;99694.81;;;9.93;100.00
46836;BME280;32573;51.290;6.926;2022-11-14T12:49:36;99704.47;;;9.96;100.00
46836;BME280;32573;51.290;6.926;2022-11-14T12:52:47;99718.50;;;9.99;100.00
46836;BME280;32573;51.290;6.926;2022-11-14T12:55:53;99708.97;;;10.01;100.00
46836;BME280;32573;51.290;6.926;2022-11-14T12:58:53;99720.31;;;10.03;100.00
46836;BME280;32573;51.290;6.926;2022-11-14T13:01:52;99724.72;;;10.04;100.00
46836;BME280;32573;51.290;6.926;2022-11-14T13:04:57;99723.88;;;10.05;100.00
46836;BME280;32573;51.290;6.926;2022-11-14T13:08:00;99728.25;;;10.06;100.00
46836;BME280;32573;51.290;6.926;2022-11-14T13:10:52;99732.63;;;10.07;100.00
46836;BME280;32573;51.290;6.926;2022-11-14T13:13:54;99734.38;;;10.07;100.00
46836;BME280;32573;51.290;6.926;2022-11-14T13:17:14;99724.78;;;10.07;100.00
46836;BME280;32573;51.290;6.926;2022-11-14T13:20:28;99727.41;;;10.07;100.00
46836;BME280;32573;51.290;6.926;2022-11-14T13:23:56;99727.41;;;10.07;100.00
46836;BME280;32573;51.290;6.926;2022-11-14T13:26:53;99730.84;;;10.05;100.00
46836;BME280;32573;51.290;6.926;2022-11-14T13:29:49;99723.00;;;10.05;100.00
46836;BME280;32573;51.290;6.926;2022-11-14T13:32:52;99731.66;;;10.02;100.00
46836;BME280;32573;51.290;6.926;2022-11-14T13:35:56;99721.13;;;9.99;100.00
46836;BME280;32573;51.290;6.926;2022-11-14T13:39:18;99717.59;;;9.97;100.00
46836;BME280;32573;51.290;6.926;2022-11-14T13:42:26;99705.28;;;9.93;100.00
46836;BME280;32573;51.290;6.926;2022-11-14T13:45:33;99719.22;;;9.92;100.00
46836;BME280;32573;51.290;6.926;2022-11-14T13:48:52;99709.63;;;9.91;100.00
46836;BME280;32573;51.290;6.926;2022-11-14T13:51:42;99714.81;;;9.89;100.00
46836;BME280;32573;51.290;6.926;2022-11-14T13:54:31;99722.59;;;9.88;100.00
46836;BME280;32573;51.290;6.926;2022-11-14T13:57:25;99705.16;;;9.87;100.00
46836;BME280;32573;51.290;6.926;2022-11-14T14:00:14;99702.50;;;9.85;100.00
46836;BME280;32573;51.290;6.926;2022-11-14T14:03:23;99693.72;;;9.83;100.00
46836;BME280;32573;51.290;6.926;2022-11-14T14:06:32;99702.50;;;9.85;100.00
46836;BME280;32573;51.290;6.926;2022-11-14T14:09:26;99701.63;;;9.85;100.00
46836;BME280;32573;51.290;6.926;2022-11-14T14:12:28;99692.03;;;9.85;100.00
46836;BME280;32573;51.290;6.926;2022-11-14T14:15:24;99693.78;;;9.85;100.00
46836;BME280;32573;51.290;6.926;2022-11-14T14:18:22;99678.03;;;9.83;100.00
46836;BME280;32573;51.290;6.926;2022-11-14T14:21:22;99685.00;;;9.83;100.00
46836;BME280;32573;51.290;6.926;2022-11-14T14:24:24;99685.88;;;9.82;100.00
46836;BME280;32573;51.290;6.926;2022-11-14T14:27:22;99671.00;;;9.81;100.00
46836;BME280;32573;51.290;6.926;2022-11-14T14:30:12;99681.47;;;9.81;100.00
46836;BME280;32573;51.290;6.926;2022-11-14T14:33:03;99675.41;;;9.82;100.00
46836;BME280;32573;51.290;6.926;2022-11-14T14:35:54;99664.03;;;9.80;100.00
46836;BME280;32573;51.290;6.926;2022-11-14T14:38:41;99657.13;;;9.82;100.00
46836;BME280;32573;51.290;6.926;2022-11-14T14:41:29;99664.91;;;9.80;100.00
46836;BME280;32573;51.290;6.926;2022-11-14T14:44:23;99661.44;;;9.80;100.00
46836;BME280;32573;51.290;6.926;2022-11-14T14:47:15;99664.00;;;9.78;100.00
46836;BME280;32573;51.290;6.926;2022-11-14T14:50:05;99653.53;;;9.77;100.00
46836;BME280;32573;51.290;6.926;2022-11-14T14:52:59;99643.91;;;9.76;100.00
46836;BME280;32573;51.290;6.926;2022-11-14T14:55:52;99645.63;;;9.74;100.00
46836;BME280;32573;51.290;6.926;2022-11-14T14:58:40;99635.16;;;9.74;100.00
46836;BME280;32573;51.290;6.926;2022-11-14T15:01:31;99637.72;;;9.72;100.00
46836;BME280;32573;51.290;6.926;2022-11-14T15:04:21;99641.22;;;9.71;100.00
46836;BME280;32573;51.290;6.926;2022-11-14T15:07:18;99635.06;;;9.70;100.00
46836;BME280;32573;51.290;6.926;2022-11-14T15:10:06;99640.31;;;9.70;100.00
46836;BME280;32573;51.290;6.926;2022-11-14T15:12:54;99643.78;;;9.69;100.00
46836;BME280;32573;51.290;6.926;2022-11-14T15:15:42;99643.72;;;9.68;100.00